createdAt,value
2022-10-01T00:01:00.335Z,98050.95
2022-10-01T00:03:28.669Z,98051.10
2022-10-01T00:06:00.281Z,98050.73
2022-10-01T00:08:28.439Z,98051.52
2022-10-01T00:10:55.105Z,98051.27
2022-10-01T00:13:22.539Z,98048.63
2022-10-01T00:15:49.184Z,98046.48
2022-10-01T00:18:15.695Z,98042.81
2022-10-01T00:20:43.232Z,98044.42
2022-10-01T00:23:11.473Z,98045.27
2022-10-01T00:25:39.038Z,98041.25
2022-10-01T00:28:06.028Z,98034.86
2022-10-01T00:30:35.276Z,98032.83
2022-10-01T00:33:05.113Z,98031.98
2022-10-01T00:35:31.664Z,98027.27
2022-10-01T00:37:58.303Z,98027.51
2022-10-01T00:40:24.854Z,98032.08
2022-10-01T00:42:51.445Z,98033.23
2022-10-01T00:45:18.023Z,98032.68
2022-10-01T00:47:53.477Z,98037.35
2022-10-01T00:50:25.751Z,98033.97
2022-10-01T00:52:59.042Z,98029.48
2022-10-01T00:55:31.022Z,98026.56
2022-10-01T00:57:58.488Z,98029.26
2022-10-01T01:00:25.257Z,98027.08
2022-10-01T01:02:51.879Z,98032.47
2022-10-01T01:05:19.595Z,98029.58
2022-10-01T01:07:49.869Z,98030.41
2022-10-01T01:10:38.326Z,98029.31
2022-10-01T01:13:15.925Z,98028.15
2022-10-01T01:16:00.537Z,98026.55
2022-10-01T01:18:41.261Z,98022.91
2022-10-01T01:21:19.653Z,98025.98
2022-10-01T01:24:14.381Z,98024.11
2022-10-01T01:27:05.709Z,98023.75
2022-10-01T01:29:36.268Z,98020.61
2022-10-01T01:32:14.806Z,98025.92
2022-10-01T01:34:45.701Z,98034.60
2022-10-01T01:37:17.413Z,98040.09
2022-10-01T01:39:48.823Z,98037.91
2022-10-01T01:42:21.297Z,98031.45
2022-10-01T01:44:49.789Z,98036.20
2022-10-01T01:47:20.021Z,98033.00
2022-10-01T01:49:46.975Z,98036.98
2022-10-01T01:52:15.182Z,98033.95
2022-10-01T01:54:43.840Z,98036.60
2022-10-01T01:57:12.548Z,98034.42
2022-10-01T01:59:40.642Z,98035.50
2022-10-01T02:02:10.367Z,98040.13
2022-10-01T02:04:57.139Z,98043.92
2022-10-01T02:07:32.589Z,98043.80
2022-10-01T02:10:01.794Z,98047.70
2022-10-01T02:13:13.496Z,98049.20
2022-10-01T02:15:49.204Z,98051.03
2022-10-01T02:18:47.746Z,98048.59
2022-10-01T02:21:40.404Z,98035.30
2022-10-01T02:24:14.933Z,98035.18
2022-10-01T02:26:46.704Z,98037.83
2022-10-01T02:29:17.038Z,98039.82
2022-10-01T02:31:46.434Z,98049.11
2022-10-01T02:34:15.455Z,98055.05
2022-10-01T02:36:45.497Z,98058.04
2022-10-01T02:39:16.805Z,98062.02
2022-10-01T02:41:47.545Z,98064.08
2022-10-01T02:44:18.487Z,98058.77
2022-10-01T02:47:17.081Z,98054.98
2022-10-01T02:49:44.309Z,98058.67
2022-10-01T02:52:32.793Z,98054.80
2022-10-01T02:55:03.532Z,98053.98
2022-10-01T02:57:30.202Z,98053.40
2022-10-01T03:00:03.985Z,98052.39
2022-10-01T03:02:31.647Z,98058.44
2022-10-01T03:04:59.473Z,98065.23
2022-10-01T03:07:28.915Z,98073.96
2022-10-01T03:09:56.400Z,98075.42
2022-10-01T03:12:23.558Z,98066.88
2022-10-01T03:14:50.507Z,98061.14
2022-10-01T03:17:18.079Z,98057.60
2022-10-01T03:19:45.200Z,98061.83
2022-10-01T03:22:17.200Z,98061.71
2022-10-01T03:24:43.947Z,98059.33
2022-10-01T03:27:10.748Z,98054.73
2022-10-01T03:29:37.639Z,98054.63
2022-10-01T03:32:04.179Z,98052.20
2022-10-01T03:34:30.824Z,98047.23
2022-10-01T03:36:57.368Z,98046.43
2022-10-01T03:39:24.011Z,98052.98
2022-10-01T03:41:50.652Z,98049.69
2022-10-01T03:44:17.340Z,98047.48
2022-10-01T03:46:44.043Z,98046.42
2022-10-01T03:49:11.100Z,98051.42
2022-10-01T03:51:39.265Z,98054.72
2022-10-01T03:54:07.906Z,98055.15
2022-10-01T03:56:35.751Z,98042.44
2022-10-01T03:59:02.554Z,98038.44
2022-10-01T04:01:29.201Z,98028.18
2022-10-01T04:03:55.737Z,98028.41
2022-10-01T04:06:22.330Z,98029.50
2022-10-01T04:08:48.972Z,98026.31
2022-10-01T04:11:15.725Z,98025.88
2022-10-01T04:13:42.273Z,98016.95
2022-10-01T04:16:08.968Z,98016.06
2022-10-01T04:18:35.854Z,98017.58
2022-10-01T04:21:08.071Z,98014.49
2022-10-01T04:23:34.876Z,98019.38
2022-10-01T04:26:02.484Z,98020.92
2022-10-01T04:28:30.973Z,98020.75
2022-10-01T04:30:57.908Z,98024.75
2022-10-01T04:33:24.423Z,98031.52
2022-10-01T04:35:50.953Z,98035.97
2022-10-01T04:38:17.494Z,98038.77
2022-10-01T04:40:44.359Z,98044.44
2022-10-01T04:43:11.791Z,98045.42
2022-10-01T04:45:38.736Z,98044.46
2022-10-01T04:48:05.909Z,98042.29
2022-10-01T04:50:32.911Z,98036.52
2022-10-01T04:52:59.706Z,98038.34
2022-10-01T04:55:26.783Z,98040.20
2022-10-01T04:57:53.709Z,98037.09
2022-10-01T05:00:22.956Z,98038.07
2022-10-01T05:02:50.706Z,98037.73
2022-10-01T05:05:19.003Z,98038.92
2022-10-01T05:07:46.266Z,98039.40
2022-10-01T05:10:15.422Z,98042.96
2022-10-01T05:12:42.296Z,98044.89
2022-10-01T05:15:09.561Z,98051.59
2022-10-01T05:17:36.188Z,98057.30
2022-10-01T05:20:05.413Z,98061.83
2022-10-01T05:22:31.932Z,98059.67
2022-10-01T05:24:59.038Z,98059.45
2022-10-01T05:27:27.030Z,98051.23
2022-10-01T05:29:53.530Z,98052.55
2022-10-01T05:32:20.043Z,98053.80
2022-10-01T05:34:49.994Z,98058.34
2022-10-01T05:37:20.092Z,98061.20
2022-10-01T05:39:46.857Z,98063.11
2022-10-01T05:42:13.371Z,98054.30
2022-10-01T05:44:39.910Z,98058.58
2022-10-01T05:47:07.474Z,98064.27
2022-10-01T05:49:33.943Z,98067.36
2022-10-01T05:52:01.012Z,98069.30
2022-10-01T05:54:28.844Z,98074.20
2022-10-01T05:56:58.763Z,98074.75
2022-10-01T05:59:28.456Z,98070.59
2022-10-01T06:01:57.825Z,98064.77
2022-10-01T06:04:24.844Z,98061.66
2022-10-01T06:06:51.360Z,98063.45
2022-10-01T06:09:17.925Z,98054.57
2022-10-01T06:11:44.472Z,98052.52
2022-10-01T06:14:10.916Z,98053.28
2022-10-01T06:16:37.501Z,98052.10
2022-10-01T06:19:04.145Z,98053.38
2022-10-01T06:21:30.747Z,98047.95
2022-10-01T06:23:58.196Z,98048.10
2022-10-01T06:26:24.950Z,98044.45
2022-10-01T06:28:52.171Z,98044.91
2022-10-01T06:31:19.920Z,98044.71
2022-10-01T06:33:46.726Z,98046.09
2022-10-01T06:36:13.268Z,98051.30
2022-10-01T06:38:39.787Z,98057.11
2022-10-01T06:41:06.353Z,98054.27
2022-10-01T06:43:33.692Z,98054.67
2022-10-01T06:46:05.177Z,98050.92
2022-10-01T06:48:32.779Z,98056.33
2022-10-01T06:50:59.588Z,98057.46
2022-10-01T06:53:28.789Z,98060.88
2022-10-01T06:55:55.641Z,98054.58
2022-10-01T06:58:24.127Z,98046.94
2022-10-01T07:00:50.934Z,98046.49
2022-10-01T07:03:20.807Z,98042.62
2022-10-01T07:05:49.068Z,98043.28
2022-10-01T07:08:16.355Z,98039.59
2022-10-01T07:10:42.984Z,98035.04
2022-10-01T07:13:17.368Z,98032.63
2022-10-01T07:15:45.283Z,98032.23
2022-10-01T07:18:13.224Z,98029.16
2022-10-01T07:20:41.033Z,98025.27
2022-10-01T07:23:12.017Z,98021.11
2022-10-01T07:25:39.564Z,98016.42
2022-10-01T07:28:08.665Z,98012.98
2022-10-01T07:30:35.379Z,98015.05
2022-10-01T07:33:01.921Z,98016.92
2022-10-01T07:35:28.462Z,98012.77
2022-10-01T07:37:54.940Z,98006.48
2022-10-01T07:40:21.851Z,98004.12
2022-10-01T07:42:56.075Z,98002.16
2022-10-01T07:45:23.733Z,97999.66
2022-10-01T07:47:55.172Z,97993.90
2022-10-01T07:50:22.124Z,97989.40
2022-10-01T07:52:55.888Z,97990.23
2022-10-01T07:55:24.514Z,97995.77
2022-10-01T07:57:55.307Z,97995.87
2022-10-01T08:00:24.619Z,97991.77
2022-10-01T08:02:53.383Z,97989.55
2022-10-01T08:05:21.886Z,97987.55
2022-10-01T08:07:49.736Z,97985.20
2022-10-01T08:10:18.765Z,97992.16
2022-10-01T08:12:46.200Z,97997.41
2022-10-01T08:15:15.562Z,97997.21
2022-10-01T08:17:42.960Z,97995.19
2022-10-01T08:20:11.876Z,97994.92
2022-10-01T08:22:42.078Z,97994.34
2022-10-01T08:25:09.424Z,97994.63
2022-10-01T08:27:36.714Z,97994.02
2022-10-01T08:30:04.069Z,97988.91
2022-10-01T08:32:30.611Z,97989.36
2022-10-01T08:34:57.258Z,97981.00
2022-10-01T08:37:25.536Z,97978.87
2022-10-01T08:39:52.105Z,97971.46
2022-10-01T08:42:38.491Z,97967.79
2022-10-01T08:45:12.708Z,97963.05
2022-10-01T08:47:43.865Z,97958.32
2022-10-01T08:50:22.588Z,97952.96
2022-10-01T08:52:57.768Z,97947.39
2022-10-01T08:55:29.622Z,97947.33
2022-10-01T08:58:00.924Z,97941.52
2022-10-01T09:00:30.604Z,97942.02
2022-10-01T09:03:00.551Z,97940.20
2022-10-01T09:05:44.839Z,97938.20
2022-10-01T09:08:20.615Z,97931.11
2022-10-01T09:10:53.283Z,97932.26
2022-10-01T09:13:37.595Z,97931.90
2022-10-01T09:16:29.368Z,97924.73
2022-10-01T09:19:02.227Z,97919.11
2022-10-01T09:21:36.475Z,97918.44
2022-10-01T09:24:09.375Z,97912.35
2022-10-01T09:26:39.152Z,97907.86
2022-10-01T09:29:15.259Z,97904.63
2022-10-01T09:31:47.468Z,97900.66
2022-10-01T09:34:19.623Z,97900.42
2022-10-01T09:37:07.547Z,97897.59
2022-10-01T09:40:05.324Z,97894.41
2022-10-01T09:42:32.511Z,97892.12
2022-10-01T09:44:59.735Z,97887.60
2022-10-01T09:47:26.976Z,97878.39
2022-10-01T09:49:55.046Z,97880.14
2022-10-01T09:52:32.775Z,97878.89
2022-10-01T09:55:01.995Z,97884.17
2022-10-01T09:57:33.935Z,97879.91
2022-10-01T10:00:20.851Z,97879.34
2022-10-01T10:02:50.176Z,97873.38
2022-10-01T10:05:18.339Z,97874.07
2022-10-01T10:07:52.064Z,97871.33
2022-10-01T10:10:25.714Z,97869.98
2022-10-01T10:13:10.505Z,97869.58
2022-10-01T10:15:51.020Z,97865.63
2022-10-01T10:18:28.100Z,97862.91
2022-10-01T10:20:56.211Z,97857.40
2022-10-01T10:23:25.099Z,97850.41
2022-10-01T10:26:06.530Z,97844.52
2022-10-01T10:28:44.885Z,97838.47
2022-10-01T10:31:17.098Z,97838.08
2022-10-01T10:33:54.622Z,97833.77
2022-10-01T10:36:25.480Z,97829.52
2022-10-01T10:38:52.659Z,97820.57
2022-10-01T10:41:21.994Z,97816.58
2022-10-01T10:43:49.233Z,97810.88
2022-10-01T10:46:32.666Z,97808.07
2022-10-01T10:49:16.012Z,97807.00
2022-10-01T10:51:51.665Z,97797.68
2022-10-01T10:54:34.772Z,97793.66
2022-10-01T10:57:17.985Z,97796.91
2022-10-01T10:59:57.390Z,97792.80
2022-10-01T11:02:25.515Z,97786.39
2022-10-01T11:04:54.525Z,97782.58
2022-10-01T11:07:24.174Z,97772.04
2022-10-01T11:10:15.359Z,97762.88
2022-10-01T11:13:09.039Z,97760.55
2022-10-01T11:16:22.746Z,97757.98
2022-10-01T11:19:01.387Z,97749.09
2022-10-01T11:21:42.592Z,97747.35
2022-10-01T11:24:37.409Z,97741.73
2022-10-01T11:27:22.276Z,97742.79
2022-10-01T11:30:13.912Z,97739.78
2022-10-01T11:33:10.005Z,97742.28
2022-10-01T11:35:55.532Z,97747.48
2022-10-01T11:38:41.317Z,97742.32
2022-10-01T11:41:27.007Z,97738.58
2022-10-01T11:43:57.645Z,97726.05
2022-10-01T11:46:46.956Z,97718.02
2022-10-01T11:49:28.819Z,97713.14
2022-10-01T11:52:14.114Z,97707.68
2022-10-01T11:55:08.905Z,97703.77
2022-10-01T11:57:35.752Z,97704.58
2022-10-01T12:00:11.621Z,97697.16
2022-10-01T12:02:55.295Z,97694.70
2022-10-01T12:05:27.081Z,97696.00
2022-10-01T12:08:16.349Z,97693.08
2022-10-01T12:10:55.226Z,97688.37
2022-10-01T12:13:48.285Z,97688.88
2022-10-01T12:16:23.318Z,97693.57
2022-10-01T12:19:16.980Z,97697.45
2022-10-01T12:21:58.748Z,97687.64
2022-10-01T12:24:34.113Z,97683.59
2022-10-01T12:27:19.545Z,97680.27
2022-10-01T12:29:46.080Z,97674.48
2022-10-01T12:32:47.375Z,97667.16
2022-10-01T12:35:22.928Z,97660.58
2022-10-01T12:38:02.132Z,97661.64
2022-10-01T12:40:55.797Z,97660.44
2022-10-01T12:43:36.172Z,97658.66
2022-10-01T12:46:13.507Z,97658.20
2022-10-01T12:48:49.020Z,97651.29
2022-10-01T12:51:26.512Z,97641.33
2022-10-01T12:54:14.550Z,97638.41
2022-10-01T12:56:51.645Z,97636.58
2022-10-01T12:59:37.128Z,97632.09
2022-10-01T13:02:06.743Z,97631.65
2022-10-01T13:04:49.359Z,97626.56
2022-10-01T13:07:37.238Z,97629.89
2022-10-01T13:10:39.058Z,97628.98
2022-10-01T13:13:26.144Z,97621.94
2022-10-01T13:16:17.351Z,97622.35
2022-10-01T13:19:20.092Z,97619.08
2022-10-01T13:22:04.814Z,97616.23
2022-10-01T13:25:18.897Z,97614.12
2022-10-01T13:27:55.662Z,97612.74
2022-10-01T13:30:24.761Z,97613.55
2022-10-01T13:32:59.512Z,97610.70
2022-10-01T13:35:39.815Z,97607.96
2022-10-01T13:38:17.270Z,97602.17
2022-10-01T13:40:44.545Z,97602.17
2022-10-01T13:43:21.359Z,97602.39
2022-10-01T13:45:51.195Z,97604.70
2022-10-01T13:48:19.797Z,97599.09
2022-10-01T13:51:02.179Z,97596.30
2022-10-01T13:53:31.314Z,97601.58
2022-10-01T13:55:57.847Z,97598.84
2022-10-01T13:58:30.467Z,97593.73
2022-10-01T14:01:00.249Z,97589.73
2022-10-01T14:03:32.537Z,97588.55
2022-10-01T14:06:02.230Z,97586.91
2022-10-01T14:08:40.618Z,97593.12
2022-10-01T14:11:13.124Z,97591.02
2022-10-01T14:13:46.991Z,97587.80
2022-10-01T14:16:14.760Z,97575.67
2022-10-01T14:18:44.247Z,97565.45
2022-10-01T14:21:13.422Z,97570.55
2022-10-01T14:23:48.765Z,97574.91
2022-10-01T14:26:31.978Z,97573.80
2022-10-01T14:29:04.354Z,97571.16
2022-10-01T14:31:45.537Z,97569.59
2022-10-01T14:34:40.057Z,97565.98
2022-10-01T14:37:16.233Z,97565.09
2022-10-01T14:39:43.686Z,97560.66
2022-10-01T14:42:17.256Z,97554.05
2022-10-01T14:44:47.134Z,97545.96
2022-10-01T14:47:16.663Z,97536.10
2022-10-01T14:49:43.264Z,97536.51
2022-10-01T14:52:29.843Z,97532.89
2022-10-01T14:54:56.224Z,97536.86
2022-10-01T14:57:37.706Z,97534.80
2022-10-01T15:00:29.016Z,97526.09
2022-10-01T15:03:14.652Z,97521.21
2022-10-01T15:05:42.214Z,97519.92
2022-10-01T15:08:23.838Z,97514.08
2022-10-01T15:10:58.128Z,97519.52
2022-10-01T15:13:29.319Z,97517.25
2022-10-01T15:15:56.385Z,97522.30
2022-10-01T15:18:24.373Z,97520.21
2022-10-01T15:20:55.217Z,97518.83
2022-10-01T15:23:24.133Z,97512.11
2022-10-01T15:25:52.232Z,97508.57
2022-10-01T15:28:30.699Z,97512.06
2022-10-01T15:30:59.464Z,97504.98
2022-10-01T15:33:32.501Z,97504.83
2022-10-01T15:36:02.533Z,97503.08
2022-10-01T15:38:31.094Z,97504.27
2022-10-01T15:41:19.638Z,97503.78
2022-10-01T15:43:46.819Z,97501.35
2022-10-01T15:46:24.564Z,97497.70
2022-10-01T15:49:12.704Z,97502.51
2022-10-01T15:51:47.300Z,97495.31
2022-10-01T15:54:14.353Z,97490.02
2022-10-01T15:56:41.460Z,97494.33
2022-10-01T15:59:17.932Z,97494.77
2022-10-01T16:01:44.772Z,97494.36
2022-10-01T16:04:13.416Z,97492.27
2022-10-01T16:06:43.188Z,97489.38
2022-10-01T16:09:21.708Z,97482.02
2022-10-01T16:11:58.645Z,97474.95
2022-10-01T16:14:29.793Z,97484.96
2022-10-01T16:17:18.161Z,97482.55
2022-10-01T16:19:46.766Z,97479.01
2022-10-01T16:22:30.244Z,97479.04
2022-10-01T16:25:02.549Z,97474.17
2022-10-01T16:27:44.150Z,97476.63
2022-10-01T16:30:22.991Z,97484.19
2022-10-01T16:32:49.825Z,97482.95
2022-10-01T16:35:21.879Z,97483.90
2022-10-01T16:37:50.440Z,97481.64
2022-10-01T16:40:18.602Z,97486.77
2022-10-01T16:42:46.243Z,97485.52
2022-10-01T16:45:17.660Z,97486.82
2022-10-01T16:47:45.104Z,97484.55
2022-10-01T16:50:14.073Z,97486.91
2022-10-01T16:52:40.635Z,97489.34
2022-10-01T16:55:17.088Z,97481.78
2022-10-01T16:57:43.933Z,97483.93
2022-10-01T17:00:14.463Z,97490.14
2022-10-01T17:02:41.927Z,97491.16
2022-10-01T17:05:19.299Z,97487.73
2022-10-01T17:07:46.321Z,97485.35
2022-10-01T17:10:13.736Z,97485.45
2022-10-01T17:12:41.505Z,97483.05
2022-10-01T17:15:12.875Z,97482.05
2022-10-01T17:17:39.405Z,97479.10
2022-10-01T17:20:06.149Z,97479.56
2022-10-01T17:22:32.595Z,97481.63
2022-10-01T17:24:59.089Z,97474.92
2022-10-01T17:27:27.209Z,97474.08
2022-10-01T17:29:53.675Z,97476.06
2022-10-01T17:32:20.193Z,97478.70
2022-10-01T17:34:46.832Z,97479.59
2022-10-01T17:37:13.579Z,97478.41
2022-10-01T17:39:40.122Z,97478.68
2022-10-01T17:42:06.772Z,97480.31
2022-10-01T17:44:33.313Z,97487.54
2022-10-01T17:46:59.759Z,97494.55
2022-10-01T17:49:26.398Z,97497.39
2022-10-01T17:51:53.139Z,97503.92
2022-10-01T17:54:19.888Z,97498.41
2022-10-01T17:56:46.622Z,97499.20
2022-10-01T17:59:13.287Z,97504.47
2022-10-01T18:01:39.825Z,97501.84
2022-10-01T18:04:06.469Z,97504.23
2022-10-01T18:06:33.579Z,97497.66
2022-10-01T18:09:00.370Z,97494.54
2022-10-01T18:11:29.115Z,97489.45
2022-10-01T18:13:55.909Z,97488.64
2022-10-01T18:16:23.487Z,97488.88
2022-10-01T18:21:45.958Z,97500.96
2022-10-01T18:24:12.498Z,97502.09
2022-10-01T18:26:39.277Z,97508.21
2022-10-01T18:29:05.946Z,97512.55
2022-10-01T18:31:38.417Z,97511.09
2022-10-01T18:34:15.126Z,97505.37
2022-10-01T18:37:05.139Z,97502.48
2022-10-01T18:39:45.350Z,97505.65
2022-10-01T18:42:27.409Z,97508.48
2022-10-01T18:44:59.705Z,97508.64
2022-10-01T18:47:40.462Z,97502.55
2022-10-01T18:50:46.102Z,97504.68
2022-10-01T18:53:30.963Z,97504.09
2022-10-01T18:56:19.551Z,97504.87
2022-10-01T18:59:00.337Z,97497.19
2022-10-01T19:02:00.638Z,97496.41
2022-10-01T19:04:49.124Z,97485.77
2022-10-01T19:07:37.725Z,97481.66
2022-10-01T19:10:19.483Z,97480.39
2022-10-01T19:12:51.657Z,97477.39
2022-10-01T19:15:24.705Z,97470.31
2022-10-01T19:18:11.526Z,97469.79
2022-10-01T19:21:07.647Z,97472.61
2022-10-01T19:23:36.922Z,97469.94
2022-10-01T19:26:08.944Z,97470.53
2022-10-01T19:29:16.383Z,97476.41
2022-10-01T19:31:57.666Z,97482.03
2022-10-01T19:34:46.335Z,97487.41
2022-10-01T19:37:27.891Z,97486.95
2022-10-01T19:40:02.888Z,97489.71
2022-10-01T19:42:35.914Z,97489.52
2022-10-01T19:45:05.438Z,97490.25
2022-10-01T19:47:50.432Z,97486.65
2022-10-01T19:50:24.039Z,97478.40
2022-10-01T19:52:53.816Z,97478.17
2022-10-01T19:55:24.042Z,97483.73
2022-10-01T19:57:50.726Z,97488.28
2022-10-01T20:00:20.277Z,97492.15
2022-10-01T20:02:52.451Z,97490.13
2022-10-01T20:05:28.883Z,97486.97
2022-10-01T20:08:01.377Z,97492.54
2022-10-01T20:11:10.094Z,97493.31
2022-10-01T20:13:49.941Z,97493.98
2022-10-01T20:16:22.181Z,97493.65
2022-10-01T20:19:04.117Z,97495.80
2022-10-01T20:21:56.359Z,97497.59
2022-10-01T20:24:46.552Z,97500.75
2022-10-01T20:27:57.089Z,97503.79
2022-10-01T20:30:23.671Z,97508.85
2022-10-01T20:33:36.866Z,97516.31
2022-10-01T20:36:18.126Z,97521.06
2022-10-01T20:38:50.920Z,97525.60
2022-10-01T20:41:21.863Z,97526.23
2022-10-01T20:43:59.930Z,97535.26
2022-10-01T20:46:35.358Z,97553.29
2022-10-01T20:49:24.956Z,97569.15
2022-10-01T20:52:02.456Z,97574.15
2022-10-01T20:54:45.127Z,97580.91
2022-10-01T20:57:37.519Z,97586.38
2022-10-01T21:00:14.141Z,97589.17
2022-10-01T21:02:48.697Z,97593.67
2022-10-01T21:05:21.514Z,97604.70
2022-10-01T21:07:54.854Z,97607.41
2022-10-01T21:10:33.308Z,97608.90
2022-10-01T21:13:11.468Z,97611.42
2022-10-01T21:15:51.027Z,97616.45
2022-10-01T21:18:34.321Z,97619.70
2022-10-01T21:21:38.543Z,97619.68
2022-10-01T21:24:27.093Z,97628.14
2022-10-01T21:27:08.703Z,97629.77
2022-10-01T21:29:44.095Z,97640.36
2022-10-01T21:32:37.726Z,97643.14
2022-10-01T21:35:23.314Z,97649.14
2022-10-01T21:38:18.810Z,97652.90
2022-10-01T21:41:17.733Z,97648.94
2022-10-01T21:44:10.105Z,97648.38
2022-10-01T21:46:55.155Z,97650.17
2022-10-01T21:49:29.376Z,97645.82
2022-10-01T21:52:13.235Z,97642.81
2022-10-01T21:54:56.053Z,97645.02
2022-10-01T21:57:51.773Z,97643.96
2022-10-01T22:00:21.541Z,97650.02
2022-10-01T22:03:09.675Z,97656.11
2022-10-01T22:05:43.757Z,97658.81
2022-10-01T22:08:47.840Z,97656.27
2022-10-01T22:11:19.608Z,97659.62
2022-10-01T22:13:51.554Z,97661.02
2022-10-01T22:16:20.285Z,97662.96
2022-10-01T22:18:50.932Z,97665.90
2022-10-01T22:21:23.844Z,97670.21
2022-10-01T22:23:59.169Z,97666.85
2022-10-01T22:26:29.737Z,97666.48
2022-10-01T22:28:56.963Z,97656.81
2022-10-01T22:31:29.690Z,97649.39
2022-10-01T22:34:09.387Z,97646.44
2022-10-01T22:36:49.148Z,97646.03
2022-10-01T22:39:22.041Z,97650.38
2022-10-01T22:41:54.731Z,97659.79
2022-10-01T22:44:23.119Z,97667.75
2022-10-01T22:47:18.363Z,97670.27
2022-10-01T22:49:57.248Z,97673.05
2022-10-01T22:52:23.785Z,97672.60
2022-10-01T22:55:12.035Z,97671.30
2022-10-01T22:57:55.057Z,97681.02
2022-10-01T23:00:21.810Z,97684.80
2022-10-01T23:03:06.886Z,97680.69
2022-10-01T23:05:47.505Z,97684.00
2022-10-01T23:08:16.964Z,97677.34
2022-10-01T23:11:13.317Z,97672.50
2022-10-01T23:14:06.321Z,97674.65
2022-10-01T23:16:50.963Z,97674.13
2022-10-01T23:19:51.282Z,97676.86
2022-10-01T23:22:41.562Z,97674.72
2022-10-01T23:25:19.058Z,97674.52
2022-10-01T23:28:16.719Z,97673.59
2022-10-01T23:30:57.240Z,97678.01
2022-10-01T23:33:58.043Z,97683.67
2022-10-01T23:36:47.010Z,97684.27
2022-10-01T23:39:13.454Z,97691.38
2022-10-01T23:41:48.119Z,97691.90
2022-10-01T23:44:25.935Z,97695.48
2022-10-01T23:46:56.007Z,97699.78
2022-10-01T23:49:29.448Z,97698.89
2022-10-01T23:52:05.679Z,97703.04
2022-10-01T23:54:46.188Z,97704.23
2022-10-01T23:57:37.703Z,97703.08
